Latest Weather Observations for Gabo Island

IDN60801

Issued at 6:02 pm EST Sunday 2 August 2015 (issued every 30 minutes, with the page automatically refreshed every 10 minutes)

About weather observations | Map of weather stations | Latest weather observations for NSW | Other Formats
Station Details ID: 084016 Name: GABO ISLAND LIGHTHOUSE Lat: -37.57 Lon: 149.92 Height: 15.2 m
Data from the previous 72 hours. | See also: Recent months at Gabo Island
Date/Time
EST
Temp
°C
App
Temp
°C
Dew
Point
Rel
Hum
%
Delta-T
°C
Wind Press
QNH
hPa
Press
MSL
hPa
Rain
since 9 am
mm
Dir
 
Spd
km/h
Gust
km/h
Spd
kts
Gust
kts
02/06:00pm 9.1 6.6 6.7 85 1.1 NNW 9 9 5 5 1008.5 1008.5 0.6
02/05:30pm 10.0 8.0 7.0 81 1.4 NNW 7 9 4 5 1008.2 - 0.6
02/05:00pm 10.6 7.7 6.6 76 1.9 W 11 15 6 8 1008.0 - 0.6
02/04:30pm 11.6 7.0 6.3 70 2.5 WSW 20 26 11 14 1008.0 - 0.6
02/04:00pm 11.8 5.5 5.6 66 2.9 SW 28 33 15 18 1008.2 - 0.6
02/03:30pm 11.4 6.6 7.2 75 2.0 SW 22 26 12 14 1008.2 - 0.6
02/03:00pm 11.6 8.2 7.5 76 2.0 SW 15 19 8 10 1008.0 1008.0 0.6
02/02:30pm 11.5 7.9 8.2 80 1.6 SW 17 22 9 12 1008.0 - 0.6
02/02:00pm 11.1 8.7 8.5 84 1.3 W 11 17 6 9 1007.7 - 0.6
02/01:30pm 10.3 7.0 8.0 86 1.1 W 15 17 8 9 1007.9 - 0.6
02/01:00pm 10.0 6.7 8.1 88 0.9 W 15 22 8 12 1008.3 - 0.6
02/12:30pm 10.1 5.6 8.5 90 0.8 W 22 28 12 15 1009.3 - 0.6
02/12:00pm 10.3 4.1 8.0 86 1.1 WSW 30 35 16 19 1009.4 1009.5 0.6
02/11:30am 10.9 5.1 9.3 90 0.8 WSW 30 37 16 20 1009.9 - 0.6
02/11:00am 10.5 4.3 9.3 92 0.6 WSW 32 39 17 21 1010.2 - 0.6
02/10:30am 10.0 3.8 9.2 95 0.4 WSW 32 39 17 21 1010.7 - 0.4
02/10:00am 10.6 5.6 9.4 92 0.6 WSW 26 30 14 16 1010.5 - 0.4
02/09:30am 10.6 6.7 9.6 93 0.5 W 20 24 11 13 1010.9 - 0.4
02/09:00am 10.0 6.0 9.0 93 0.5 WSW 20 26 11 14 1011.2 1011.1 1.4
02/08:30am 10.2 7.1 8.8 91 0.7 WSW 15 20 8 11 1011.5 - 1.0
02/08:00am 9.8 7.7 8.4 91 0.7 N 9 11 5 6 1011.4 - 1.0
02/07:30am 9.8 6.9 8.1 89 0.8 N 13 17 7 9 1011.4 - 1.0
02/07:00am 9.4 5.8 8.2 92 0.6 N 17 20 9 11 1011.6 - 1.0
02/06:30am 9.0 5.9 7.3 89 0.8 N 13 17 7 9 1011.9 - 0.8
02/06:00am 8.9 4.9 6.8 87 1.0 N 17 20 9 11 1012.2 1012.2 0.8
02/05:30am 9.1 5.3 7.4 89 0.8 N 17 20 9 11 1012.6 - 0.8
02/05:00am 9.1 6.0 7.4 89 0.8 N 13 15 7 8 1012.8 - 0.8
02/04:30am 9.3 6.2 7.2 87 1.0 NNE 13 17 7 9 1013.3 - 0.8
02/04:00am 9.5 5.8 6.5 81 1.4 NNE 15 19 8 10 1013.5 - 0.8
02/03:30am 9.0 5.8 6.9 87 1.0 N 13 17 7 9 1014.4 - 0.8
02/03:00am 9.5 6.6 6.3 80 1.5 WNW 11 15 6 8 1015.0 1015.1 0.6
02/02:30am 9.5 6.5 6.0 79 1.6 NW 11 13 6 7 1015.1 - 0.4
02/02:00am 10.0 6.5 5.4 73 2.1 NW 13 15 7 8 1015.6 - 0.4
02/01:30am 9.9 6.7 5.0 71 2.2 NW 11 15 6 8 1015.1 - 0.4
02/01:00am 9.7 5.8 5.3 74 2.0 NNW 15 17 8 9 1015.2 - 0.4
02/12:30am 9.7 6.3 5.8 77 1.8 NW 13 17 7 9 1015.8 - 0.4
02/12:00am 9.3 5.8 5.6 78 1.7 NW 13 15 7 8 1015.7 1015.7 0.4
 
Date/Time
EST
Temp
°C
App
Temp
°C
Dew
Point
Rel
Hum
%
Delta-T
°C
Wind Press
QNH
hPa
Press
MSL
hPa
Rain
since 9 am
mm
Dir
 
Spd
km/h
Gust
km/h
Spd
kts
Gust
kts
01/11:30pm 9.7 6.4 6.2 79 1.6 NW 13 15 7 8 1016.4 - 0.4
01/11:00pm 9.9 6.5 6.0 77 1.8 WNW 13 19 7 10 1015.9 - 0.4
01/10:30pm 10.0 6.2 5.6 74 2.0 WNW 15 17 8 9 1015.7 - 0.4
01/10:00pm 10.0 5.9 6.3 78 1.7 WNW 17 22 9 12 1016.1 - 0.4
01/09:30pm 10.1 5.9 5.7 74 2.0 W 17 24 9 13 1016.0 - 0.4
01/09:00pm 10.3 5.9 6.4 77 1.8 W 19 26 10 14 1016.4 1016.4 0.4
01/08:30pm 10.5 4.6 5.7 72 2.2 W 26 30 14 16 1016.1 - 0.4
01/08:00pm 10.4 5.0 6.3 76 1.9 W 24 32 13 17 1016.1 - 0.4
01/07:30pm 10.3 4.9 6.4 77 1.8 W 24 30 13 16 1015.9 - 0.4
01/07:00pm 10.3 5.4 6.9 79 1.6 W 22 28 12 15 1015.4 - 0.4
01/06:30pm 10.3 4.7 7.1 80 1.5 W 26 33 14 18 1015.1 - 0.4
01/06:00pm 10.3 5.1 7.1 80 1.5 W 24 32 13 17 1015.0 1015.0 0.4
01/05:30pm 10.2 5.1 7.7 84 1.2 W 24 28 13 15 1014.9 - 0.4
01/05:00pm 10.2 4.8 8.1 87 1.0 W 26 33 14 18 1014.6 - 0.4
01/04:30pm 10.8 3.9 9.0 89 0.9 WSW 35 43 19 23 1014.3 - 0.0
01/04:00pm 11.2 4.0 9.2 87 1.0 WSW 37 44 20 24 1013.8 - 0.0
01/03:30pm 11.4 3.0 9.8 90 0.8 SW 44 54 24 29 1013.4 - 0.0
01/03:00pm 11.7 3.3 9.7 87 1.0 SW 44 56 24 30 1012.7 1012.6 0.0
01/02:30pm 12.5 2.8 9.1 80 1.7 SW 50 59 27 32 1011.5 - 0.0
01/02:00pm 12.8 3.1 10.5 86 1.2 SW 52 59 28 32 1011.1 - 0.0
01/01:30pm 13.8 3.8 10.6 81 1.7 SW 54 67 29 36 1010.9 - 0.0
01/01:00pm 15.3 6.1 9.5 68 3.0 SW 48 65 26 35 1010.0 - 0.0
01/12:57pm 15.7 7.2 8.4 62 3.7 SW 43 61 23 33 1010.0 - 0.0
01/12:48pm 16.4 10.4 6.9 53 4.7 SW 28 43 15 23 1009.7 - 0.0
01/12:30pm 15.7 11.2 7.0 56 4.3 SSW 20 24 11 13 1009.5 - 0.0
01/12:00pm 16.7 13.2 7.3 54 4.7 N 15 20 8 11 1009.5 1009.5 0.0
01/11:30am 17.4 13.0 7.2 51 5.1 NNE 20 30 11 16 1009.6 - 0.0
01/11:00am 16.5 11.0 5.8 49 5.2 NNE 24 32 13 17 1009.7 - 0.0
01/10:30am 16.3 10.2 6.5 52 4.8 NNE 28 35 15 19 1009.6 - 0.0
01/10:00am 15.4 9.0 5.0 50 4.9 NNE 28 35 15 19 1009.7 - 0.0
01/09:30am 14.2 8.5 6.5 60 3.7 NNE 26 32 14 17 1009.9 - 0.0
01/09:00am 12.9 6.9 5.2 59 3.6 NNE 26 33 14 18 1010.4 1010.5 0.0
01/08:30am 11.9 7.1 4.9 62 3.2 NNE 19 24 10 13 1010.6 - 0.0
01/08:00am 11.3 6.4 4.9 65 2.9 NNE 20 26 11 14 1010.4 - 0.0
01/07:30am 10.9 5.9 3.4 60 3.3 N 19 24 10 13 1010.4 - 0.0
01/07:00am 10.7 6.2 4.2 64 2.9 N 17 20 9 11 1011.1 - 0.0
01/06:30am 11.2 7.1 4.3 62 3.1 N 15 19 8 10 1011.4 - 0.0
01/06:00am 11.1 7.0 4.2 62 3.1 N 15 19 8 10 1011.6 1011.5 0.0
01/05:30am 11.1 6.7 2.8 56 3.6 N 15 17 8 9 1011.7 - 0.0
01/05:00am 11.6 7.0 3.5 57 3.6 N 17 19 9 10 1011.7 - 0.0
01/04:30am 11.1 6.3 2.5 55 3.7 N 17 22 9 12 1011.6 - 0.0
01/04:00am 9.9 5.4 4.3 68 2.5 N 17 20 9 11 1011.6 - 0.0
01/03:30am 10.1 7.6 6.5 78 1.7 WNW 9 13 5 7 1011.9 - 0.0
01/03:00am 10.0 7.1 4.9 70 2.3 N 9 13 5 7 1012.4 1012.4 0.0
01/02:30am 10.6 6.3 5.4 70 2.4 N 17 22 9 12 1012.8 - 0.0
01/02:00am 11.0 6.9 6.3 73 2.2 NNE 17 20 9 11 1013.2 - 0.0
01/01:30am 11.4 5.6 7.9 79 1.7 NNE 28 35 15 19 1013.2 - 0.0
01/01:00am 11.8 5.8 8.8 82 1.5 NNE 30 39 16 21 1013.9 - 0.0
01/12:30am 12.1 7.3 8.7 80 1.7 NNE 24 30 13 16 1015.0 - 0.0
01/12:00am 12.2 5.2 8.4 77 1.9 NNE 35 44 19 24 1015.0 1015.0 0.0
 
Date/Time
EST
Temp
°C
App
Temp
°C
Dew
Point
Rel
Hum
%
Delta-T
°C
Wind Press
QNH
hPa
Press
MSL
hPa
Rain
since 9 am
mm
Dir
 
Spd
km/h
Gust
km/h
Spd
kts
Gust
kts
31/11:30pm 12.3 5.7 8.5 77 1.9 NNE 33 44 18 24 1015.1 - 0.0
31/11:00pm 12.1 6.3 8.0 76 2.0 N 28 35 15 19 1016.1 - 0.0
31/10:30pm 11.9 6.1 7.8 76 2.0 N 28 35 15 19 1016.7 - 0.0
31/10:00pm 11.9 5.6 7.3 73 2.2 N 30 35 16 19 1017.1 - 0.0
31/09:30pm 11.8 5.8 7.0 72 2.3 N 28 35 15 19 1017.5 - 0.0
31/09:00pm 11.2 5.9 6.8 74 2.1 N 24 32 13 17 1017.8 1017.9 0.0
31/08:30pm 10.5 5.9 6.7 77 1.8 N 20 28 11 15 1018.1 - 0.0
31/08:00pm 9.6 5.1 5.9 78 1.7 NNE 19 24 10 13 1018.2 - 0.0
31/07:30pm 9.4 5.2 5.7 78 1.7 NNE 17 22 9 12 1018.2 - 0.0
31/07:00pm 10.3 5.2 6.2 76 1.9 NNE 22 26 12 14 1018.2 - 0.0
31/06:30pm 10.4 6.3 6.1 75 2.0 NNE 17 22 9 12 1018.2 - 0.0
31/06:00pm 8.7 5.1 5.1 78 1.6 N 13 15 7 8 1018.3 1018.3 0.0
31/05:30pm 11.0 7.3 4.5 64 2.9 NE 13 15 7 8 1018.3 - 0.0
31/05:00pm 11.2 8.7 4.0 61 3.2 S 6 9 3 5 1018.7 - 0.0
31/04:30pm 11.8 8.1 4.5 61 3.3 S 13 17 7 9 1018.6 - 0.0
31/04:00pm 12.2 7.3 5.0 61 3.3 SSW 20 24 11 13 1018.6 - 0.0
31/03:30pm 12.3 6.7 3.2 54 4.0 SSW 22 26 12 14 1018.7 - 0.0
31/03:00pm 12.7 6.5 4.3 56 3.8 SSW 26 30 14 16 1018.8 1018.8 0.0
31/02:30pm 12.8 7.4 4.5 57 3.8 SSW 22 28 12 15 1018.7 - 0.0
31/02:00pm 12.6 6.5 4.7 58 3.6 SSW 26 30 14 16 1019.1 - 0.0
31/01:30pm 12.8 7.3 3.9 54 4.0 SW 22 30 12 16 1019.4 - 0.0
31/01:00pm 12.7 8.1 3.5 53 4.1 SW 17 22 9 12 1019.7 - 0.0
31/12:30pm 13.1 7.7 2.6 49 4.6 WSW 20 24 11 13 1019.8 - 0.0
31/12:00pm 13.2 7.7 4.2 54 4.1 WSW 22 28 12 15 1020.4 1020.4 0.0
31/11:30am 12.7 6.9 4.6 58 3.7 W 24 32 13 17 1020.8 - 0.0
31/11:00am 12.4 5.9 4.5 58 3.6 W 28 33 15 18 1021.0 - 0.0
31/10:30am 12.3 6.2 4.9 60 3.4 W 26 32 14 17 1021.0 - 0.0
31/10:00am 11.7 5.2 4.6 62 3.2 W 28 35 15 19 1020.7 - 0.0
31/09:30am 11.4 5.0 5.0 65 2.9 W 28 37 15 20 1020.4 - 0.0
31/09:00am 11.1 5.1 5.2 67 2.7 W 26 32 14 17 1020.3 1020.2 0.0
31/08:30am 10.9 4.5 5.4 69 2.5 W 28 35 15 19 1020.1 - 0.0
31/08:00am 10.6 3.9 5.6 71 2.3 W 30 37 16 20 1019.9 - 0.0
31/07:30am 10.3 4.3 5.5 72 2.2 W 26 33 14 18 1019.4 - 0.0
31/07:00am 10.4 4.4 5.3 70 2.3 W 26 33 14 18 1018.7 - 0.0
31/06:30am 11.1 4.6 4.9 65 2.8 W 28 35 15 19 1018.3 - 0.0
31/06:00am 11.5 3.8 5.4 66 2.8 WSW 35 44 19 24 1017.9 1017.9 0.0
31/05:30am 11.6 3.0 4.5 61 3.2 WSW 39 48 21 26 1017.3 - 0.0
31/05:00am 11.7 1.8 4.9 63 3.1 WSW 46 57 25 31 1016.9 - 0.0
31/04:30am 11.9 2.0 4.6 61 3.3 WSW 46 59 25 32 1016.5 - 0.0
31/04:00am 12.1 3.1 6.4 68 2.7 WSW 43 57 23 31 1016.1 - 0.0
31/03:30am 12.1 2.4 5.7 65 3.0 WSW 46 59 25 32 1015.7 - 0.0
31/03:00am 12.4 1.6 4.2 57 3.7 WSW 50 63 27 34 1015.3 1015.2 0.0
31/02:30am 13.6 4.3 3.0 48 4.7 SW 41 52 22 28 1015.0 - 0.0
31/02:22am 13.4 5.9 3.6 51 4.4 WSW 32 50 17 27 1015.1 - 0.0
31/02:00am 13.1 7.8 3.2 51 4.4 W 20 35 11 19 1014.9 - 0.0
31/01:30am 13.4 8.6 2.5 47 4.8 WNW 17 24 9 13 1014.8 - 0.0
31/01:00am 12.4 8.8 4.8 60 3.5 W 13 19 7 10 1014.3 - 0.0
31/12:30am 12.5 8.7 3.8 55 3.9 W 13 17 7 9 1014.0 - 0.0
31/12:00am 12.7 8.5 5.6 62 3.3 W 17 20 9 11 1014.0 1013.9 0.0
 
Date/Time
EST
Temp
°C
App
Temp
°C
Dew
Point
Rel
Hum
%
Delta-T
°C
Wind Press
QNH
hPa
Press
MSL
hPa
Rain
since 9 am
mm
Dir
 
Spd
km/h
Gust
km/h
Spd
kts
Gust
kts
30/11:30pm 12.6 8.8 6.0 64 3.1 W 15 17 8 9 1013.6 - 0.0
30/11:00pm 12.9 10.4 3.8 54 4.1 WNW 6 9 3 5 1013.4 - 0.0
30/10:30pm 13.1 10.3 2.0 47 4.8 N 6 9 3 5 1013.2 - 0.0
30/10:00pm 13.3 9.7 2.9 49 4.6 N 11 15 6 8 1012.7 - 0.0
30/09:30pm 13.2 9.0 5.5 59 3.6 NNE 17 22 9 12 1012.7 - 0.0
30/09:00pm 12.8 8.5 5.3 60 3.5 NNE 17 19 9 10 1012.5 1012.6 0.0
30/08:30pm 12.1 7.4 6.2 67 2.8 N 20 26 11 14 1012.6 - 0.0
30/08:00pm 11.3 6.8 6.9 74 2.1 N 20 26 11 14 1012.5 - 0.0
30/07:30pm 11.4 6.4 6.5 72 2.3 N 22 30 12 16 1012.3 - 0.0
30/07:00pm 11.4 6.4 6.3 71 2.4 N 22 26 12 14 1013.0 - 0.0
30/06:30pm 11.6 5.9 6.5 71 2.4 N 26 32 14 17 1013.2 - 0.0

Other Formats:

Comma delimited format used in spreadsheet applications
http://www.bom.gov.au/fwo/IDN60801/IDN60801.94933.axf

JavaScript Object Notation format (JSON) in row-major order
http://www.bom.gov.au/fwo/IDN60801/IDN60801.94933.json